Time;durP1;ratioP1;P1;durP2;ratioP2;P2;SDS_P1;SDS_P2;PMS_P1;PMS_P2;Temp;Humidity;BMP_temperature;BMP_pressure;BME280_temperature;BME280_humidity;BME280_pressure;Samples;Min_cycle;Max_cycle;Signal;HPM_P1;HPM_P2
2022/01/05 00:01:22;;;;;;;14.38;6.00;;;;;;;;;;6273076;22;20049;-66
2022/01/05 00:03:48;;;;;;;9.98;6.60;;;;;;;;;;6272257;22;20010;-67
2022/01/05 00:06:14;;;;;;;11.95;6.95;;;;;;;;;;6271635;22;19999;-64
2022/01/05 00:08:40;;;;;;;13.30;5.90;;;;;;;;;;6274547;22;19996;-66
2022/01/05 00:11:07;;;;;;;10.00;5.63;;;;;;;;;;6272020;22;20454;-67
2022/01/05 00:13:33;;;;;;;12.00;6.60;;;;;;;;;;6272303;22;20003;-66
2022/01/05 00:16:00;;;;;;;7.80;6.03;;;;;;;;;;6272227;22;20334;-66
2022/01/05 00:18:26;;;;;;;12.63;5.85;;;;;;;;;;6272731;22;20008;-66
2022/01/05 00:20:52;;;;;;;13.43;7.53;;;;;;;;;;6272760;22;20038;-67
2022/01/05 00:23:18;;;;;;;10.93;5.93;;;;;;;;;;6269825;22;20007;-67
2022/01/05 00:25:44;;;;;;;11.13;7.53;;;;;;;;;;6271766;22;20045;-63
2022/01/05 00:28:10;;;;;;;13.02;6.97;;;;;;;;;;6272620;22;20004;-67
2022/01/05 00:30:36;;;;;;;13.10;6.82;;;;;;;;;;6272662;22;19999;-66
2022/01/05 00:33:02;;;;;;;7.95;6.10;;;;;;;;;;6271422;22;20011;-66
2022/01/05 00:35:28;;;;;;;13.90;6.05;;;;;;;;;;6273007;22;20407;-67
2022/01/05 00:37:54;;;;;;;19.08;8.85;;;;;;;;;;6274104;22;20007;-66
2022/01/05 00:40:20;;;;;;;13.38;6.43;;;;;;;;;;6272692;22;20016;-67
2022/01/05 00:42:47;;;;;;;10.13;5.15;;;;;;;;;;6271564;22;20414;-67
2022/01/05 00:45:13;;;;;;;13.50;5.75;;;;;;;;;;6272884;22;20055;-63
2022/01/05 00:47:40;;;;;;;18.83;7.30;;;;;;;;;;6271726;22;20430;-65
2022/01/05 00:50:06;;;;;;;10.30;4.63;;;;;;;;;;6271985;22;20334;-66
2022/01/05 00:52:32;;;;;;;9.63;4.97;;;;;;;;;;6271556;22;20325;-66
2022/01/05 00:54:58;;;;;;;11.20;4.88;;;;;;;;;;6272371;22;20003;-66
2022/01/05 00:57:24;;;;;;;11.00;5.07;;;;;;;;;;6270862;22;20004;-66
2022/01/05 00:59:50;;;;;;;7.50;4.28;;;;;;;;;;6271074;22;20007;-65
2022/01/05 01:02:16;;;;;;;9.38;4.80;;;;;;;;;;6270572;22;20007;-66
2022/01/05 01:04:43;;;;;;;8.68;4.60;;;;;;;;;;6271400;22;19995;-66
2022/01/05 01:07:09;;;;;;;9.57;5.18;;;;;;;;;;6272741;22;20326;-67
2022/01/05 01:09:35;;;;;;;10.73;5.63;;;;;;;;;;6271567;22;20204;-66
2022/01/05 01:12:01;;;;;;;13.30;5.22;;;;;;;;;;6272230;22;20003;-66
2022/01/05 01:14:27;;;;;;;13.02;6.93;;;;;;;;;;6272286;22;20358;-67
2022/01/05 01:16:53;;;;;;;45.78;20.83;;;;;;;;;;6271258;22;20004;-67
2022/01/05 01:19:19;;;;;;;40.83;19.48;;;;;;;;;;6274420;22;20026;-65
2022/01/05 01:21:45;;;;;;;29.63;14.68;;;;;;;;;;6271768;22;20389;-66
2022/01/05 01:24:11;;;;;;;21.67;11.73;;;;;;;;;;6270922;22;20062;-64
2022/01/05 01:26:37;;;;;;;14.93;8.43;;;;;;;;;;6271495;22;20209;-65
2022/01/05 01:29:03;;;;;;;28.63;17.98;;;;;;;;;;6272379;22;20004;-66
2022/01/05 01:31:29;;;;;;;24.55;13.50;;;;;;;;;;6270780;22;20486;-67
2022/01/05 01:33:56;;;;;;;16.85;10.40;;;;;;;;;;6270903;22;20004;-66
2022/01/05 01:36:22;;;;;;;10.48;8.07;;;;;;;;;;6272241;22;20010;-67
2022/01/05 01:38:48;;;;;;;6.97;4.53;;;;;;;;;;6271878;22;20008;-66
2022/01/05 01:41:14;;;;;;;12.07;5.03;;;;;;;;;;6269724;22;20018;-66
2022/01/05 01:43:41;;;;;;;7.90;5.07;;;;;;;;;;6271471;22;20015;-66
2022/01/05 01:46:10;;;;;;;9.23;5.13;;;;;;;;;;6270061;22;20027;-67
2022/01/05 01:48:37;;;;;;;8.13;4.32;;;;;;;;;;6272224;22;20153;-62
2022/01/05 01:51:03;;;;;;;13.50;5.95;;;;;;;;;;6270730;22;20004;-67
2022/01/05 01:53:29;;;;;;;8.88;4.88;;;;;;;;;;6272527;22;20083;-66
2022/01/05 01:55:58;;;;;;;10.50;5.38;;;;;;;;;;6271276;22;20514;-62
2022/01/05 01:58:25;;;;;;;10.75;4.30;;;;;;;;;;6272448;22;20430;-66
2022/01/05 02:00:52;;;;;;;12.25;4.88;;;;;;;;;;6272253;22;20025;-66
2022/01/05 02:03:18;;;;;;;9.02;3.92;;;;;;;;;;6272525;22;20057;-66
2022/01/05 02:05:44;;;;;;;8.75;4.72;;;;;;;;;;6271119;22;20023;-65
2022/01/05 02:08:10;;;;;;;12.57;7.65;;;;;;;;;;6269812;22;20000;-61
2022/01/05 02:10:36;;;;;;;11.20;4.90;;;;;;;;;;6267918;22;20011;-67
2022/01/05 02:13:02;;;;;;;15.38;6.40;;;;;;;;;;6272174;22;20003;-64
2022/01/05 02:15:28;;;;;;;14.43;7.95;;;;;;;;;;6271476;22;20004;-65
2022/01/05 02:18:08;;;;;;;12.57;7.40;;;;;;;;;;6276309;22;20000;-66
2022/01/05 02:20:34;;;;;;;9.20;6.10;;;;;;;;;;6273739;22;20004;-66
2022/01/05 02:23:00;;;;;;;10.25;4.97;;;;;;;;;;6271825;22;20319;-65
2022/01/05 02:25:27;;;;;;;11.60;4.82;;;;;;;;;;6272616;22;20033;-65
2022/01/05 02:27:54;;;;;;;9.23;4.40;;;;;;;;;;6274684;22;20003;-65
2022/01/05 02:30:23;;;;;;;10.30;5.47;;;;;;;;;;6273250;22;20443;-66
2022/01/05 02:32:49;;;;;;;13.35;4.32;;;;;;;;;;6274025;22;20453;-65
2022/01/05 02:35:15;;;;;;;11.18;5.22;;;;;;;;;;6272932;22;20006;-65
2022/01/05 02:37:46;;;;;;;9.00;5.70;;;;;;;;;;6273701;22;20400;-65
2022/01/05 02:40:14;;;;;;;8.57;4.68;;;;;;;;;;6273963;22;20007;-66
2022/01/05 02:42:40;;;;;;;8.20;3.97;;;;;;;;;;6273732;22;20004;-66
2022/01/05 02:45:06;;;;;;;9.38;4.13;;;;;;;;;;6279648;22;20007;-68
2022/01/05 02:47:32;;;;;;;10.15;4.63;;;;;;;;;;6276551;22;20000;-67
2022/01/05 02:49:59;;;;;;;11.00;4.78;;;;;;;;;;6274627;22;20035;-68
2022/01/05 02:52:25;;;;;;;13.27;5.05;;;;;;;;;;6272652;22;20004;-65
2022/01/05 02:54:51;;;;;;;8.88;3.92;;;;;;;;;;6273420;22;20377;-65
2022/01/05 02:57:17;;;;;;;9.27;4.47;;;;;;;;;;6274284;22;19999;-67
2022/01/05 02:59:43;;;;;;;11.25;4.47;;;;;;;;;;6272872;22;20771;-65
2022/01/05 03:02:09;;;;;;;6.07;3.70;;;;;;;;;;6274027;22;20004;-65
2022/01/05 03:04:35;;;;;;;7.43;5.00;;;;;;;;;;6272990;22;20000;-64
2022/01/05 03:07:02;;;;;;;7.72;4.22;;;;;;;;;;6274933;22;20075;-65
2022/01/05 03:09:28;;;;;;;10.52;5.43;;;;;;;;;;6272192;22;20022;-66
2022/01/05 03:11:54;;;;;;;9.82;5.30;;;;;;;;;;6273897;22;20011;-67
2022/01/05 03:14:21;;;;;;;11.10;6.90;;;;;;;;;;6271348;22;20074;-66
2022/01/05 03:16:47;;;;;;;5.95;4.70;;;;;;;;;;6273229;22;20331;-67
2022/01/05 03:19:13;;;;;;;7.28;4.57;;;;;;;;;;6275177;22;20130;-67
2022/01/05 03:21:39;;;;;;;11.48;4.00;;;;;;;;;;6273006;22;20000;-64
2022/01/05 03:24:05;;;;;;;10.80;4.57;;;;;;;;;;6274976;22;20015;-66
2022/01/05 03:26:32;;;;;;;9.02;4.35;;;;;;;;;;6275308;22;20003;-66
2022/01/05 03:28:58;;;;;;;6.47;3.78;;;;;;;;;;6272470;22;20445;-65
2022/01/05 03:31:24;;;;;;;8.98;4.20;;;;;;;;;;6272554;22;20000;-65
2022/01/05 03:33:50;;;;;;;5.18;3.95;;;;;;;;;;6273541;22;20007;-66
2022/01/05 03:36:16;;;;;;;5.38;3.42;;;;;;;;;;6271768;22;20011;-67
2022/01/05 03:38:42;;;;;;;8.85;4.40;;;;;;;;;;6272165;22;20004;-67
2022/01/05 03:41:08;;;;;;;9.07;4.38;;;;;;;;;;6272215;22;20008;-66
2022/01/05 03:43:34;;;;;;;8.07;4.43;;;;;;;;;;6272540;22;20007;-66
2022/01/05 03:46:00;;;;;;;10.02;4.60;;;;;;;;;;6272054;22;20006;-67
2022/01/05 03:48:27;;;;;;;7.78;3.60;;;;;;;;;;6272299;22;20004;-64
2022/01/05 03:50:53;;;;;;;12.35;4.22;;;;;;;;;;6271884;22;19999;-66
2022/01/05 03:53:19;;;;;;;6.88;4.18;;;;;;;;;;6270378;22;20012;-67
2022/01/05 03:55:45;;;;;;;6.43;4.00;;;;;;;;;;6272697;22;20330;-65
2022/01/05 03:58:12;;;;;;;13.68;4.97;;;;;;;;;;6272474;22;20041;-66
2022/01/05 04:00:42;;;;;;;24.00;9.55;;;;;;;;;;6270986;22;20426;-64
2022/01/05 04:03:09;;;;;;;26.60;12.50;;;;;;;;;;6271916;22;20083;-66
2022/01/05 04:05:35;;;;;;;29.70;13.93;;;;;;;;;;6272981;22;20015;-64
2022/01/05 04:08:01;;;;;;;26.40;13.10;;;;;;;;;;6272534;22;20022;-65
2022/01/05 04:10:27;;;;;;;24.02;14.65;;;;;;;;;;6272241;22;20004;-66
2022/01/05 04:12:53;;;;;;;14.70;8.45;;;;;;;;;;6272118;22;20102;-65
2022/01/05 04:15:19;;;;;;;20.23;9.60;;;;;;;;;;6273008;22;20000;-64
2022/01/05 04:17:46;;;;;;;63.75;28.85;;;;;;;;;;6271819;22;20026;-65
2022/01/05 04:20:13;;;;;;;24.55;11.43;;;;;;;;;;6272620;22;20011;-67
2022/01/05 04:22:39;;;;;;;12.05;6.28;;;;;;;;;;6269879;22;20039;-65
2022/01/05 04:25:05;;;;;;;11.90;4.85;;;;;;;;;;6270892;22;20019;-66
2022/01/05 04:27:32;;;;;;;12.15;5.00;;;;;;;;;;6272376;22;20014;-65
2022/01/05 04:29:58;;;;;;;6.50;3.95;;;;;;;;;;6273196;22;20003;-66
2022/01/05 04:32:24;;;;;;;7.55;4.10;;;;;;;;;;6271179;22;20007;-66
2022/01/05 04:34:50;;;;;;;9.48;4.53;;;;;;;;;;6272068;22;20004;-66
2022/01/05 04:37:16;;;;;;;6.10;4.25;;;;;;;;;;6272492;22;20377;-64
2022/01/05 04:39:42;;;;;;;9.00;3.80;;;;;;;;;;6270954;22;20071;-66
2022/01/05 04:42:08;;;;;;;8.30;4.60;;;;;;;;;;6271413;22;20342;-66
2022/01/05 04:44:34;;;;;;;7.55;3.55;;;;;;;;;;6272227;22;20003;-66
2022/01/05 04:47:01;;;;;;;7.82;3.75;;;;;;;;;;6271308;22;20007;-67
2022/01/05 04:49:27;;;;;;;6.82;3.63;;;;;;;;;;6272421;22;20035;-66
2022/01/05 04:51:53;;;;;;;7.53;3.58;;;;;;;;;;6269520;22;19999;-65
2022/01/05 04:54:19;;;;;;;6.40;3.40;;;;;;;;;;6270989;22;19999;-66
2022/01/05 04:56:45;;;;;;;5.95;3.05;;;;;;;;;;6271414;22;20000;-66
2022/01/05 04:59:11;;;;;;;7.22;3.50;;;;;;;;;;6271209;22;20047;-66
2022/01/05 05:01:37;;;;;;;10.23;4.65;;;;;;;;;;6272674;22;20326;-66
2022/01/05 05:04:04;;;;;;;11.02;3.58;;;;;;;;;;6271382;22;20113;-66
2022/01/05 05:06:30;;;;;;;4.63;3.22;;;;;;;;;;6271747;22;20003;-67
2022/01/05 05:08:56;;;;;;;5.95;3.22;;;;;;;;;;6270857;22;20003;-65
2022/01/05 05:11:22;;;;;;;7.57;3.28;;;;;;;;;;6271731;22;20030;-67
2022/01/05 05:13:48;;;;;;;8.75;3.72;;;;;;;;;;6271950;22;20035;-67
2022/01/05 05:16:14;;;;;;;5.38;3.15;;;;;;;;;;6271771;22;20007;-64
2022/01/05 05:18:40;;;;;;;10.07;3.33;;;;;;;;;;6271774;22;20004;-67
2022/01/05 05:21:07;;;;;;;11.90;3.53;;;;;;;;;;6271535;22;20011;-66
2022/01/05 05:23:33;;;;;;;6.82;3.35;;;;;;;;;;6272323;22;20379;-66
2022/01/05 05:25:59;;;;;;;4.65;3.05;;;;;;;;;;6273706;22;20015;-67
2022/01/05 05:28:25;;;;;;;6.93;3.17;;;;;;;;;;6270385;22;20004;-66
2022/01/05 05:30:51;;;;;;;7.50;3.53;;;;;;;;;;6271691;22;20076;-65
2022/01/05 05:33:17;;;;;;;8.90;3.00;;;;;;;;;;6269506;22;20004;-62
2022/01/05 05:35:44;;;;;;;7.97;3.15;;;;;;;;;;6273273;22;20083;-66
2022/01/05 05:38:11;;;;;;;4.93;2.72;;;;;;;;;;6271408;22;20003;-66
2022/01/05 05:40:38;;;;;;;5.90;3.33;;;;;;;;;;6272529;22;20007;-64
2022/01/05 05:43:04;;;;;;;7.60;3.58;;;;;;;;;;6270663;22;20010;-66
2022/01/05 05:45:30;;;;;;;5.55;3.30;;;;;;;;;;6271762;22;20369;-66
2022/01/05 05:47:56;;;;;;;8.63;3.20;;;;;;;;;;6269902;22;20071;-67
2022/01/05 05:50:22;;;;;;;8.10;3.20;;;;;;;;;;6271445;22;20000;-68
2022/01/05 05:52:49;;;;;;;5.65;2.90;;;;;;;;;;6267997;22;20315;-66
2022/01/05 05:55:15;;;;;;;6.53;3.28;;;;;;;;;;6272362;22;20003;-66
2022/01/05 05:57:41;;;;;;;8.63;4.03;;;;;;;;;;6273540;22;20053;-67
2022/01/05 06:00:07;;;;;;;5.43;3.38;;;;;;;;;;6272966;22;20065;-66
2022/01/05 06:02:34;;;;;;;6.63;2.85;;;;;;;;;;6271864;22;20012;-65
2022/01/05 06:05:00;;;;;;;8.70;4.30;;;;;;;;;;6273241;22;20003;-63
2022/01/05 06:07:26;;;;;;;7.18;2.95;;;;;;;;;;6272199;22;19996;-65
2022/01/05 06:09:52;;;;;;;6.20;3.15;;;;;;;;;;6274034;22;20000;-66
2022/01/05 06:12:18;;;;;;;7.03;3.00;;;;;;;;;;6272336;22;20708;-66
2022/01/05 06:14:45;;;;;;;4.72;2.72;;;;;;;;;;6272955;22;20011;-65
2022/01/05 06:17:11;;;;;;;5.28;2.90;;;;;;;;;;6272430;22;20003;-66
2022/01/05 06:19:37;;;;;;;3.50;2.80;;;;;;;;;;6272151;22;20068;-67
2022/01/05 06:22:03;;;;;;;10.65;4.40;;;;;;;;;;6273012;22;20004;-65
2022/01/05 06:24:29;;;;;;;8.70;4.03;;;;;;;;;;6277064;22;20031;-68
2022/01/05 06:26:55;;;;;;;8.23;2.85;;;;;;;;;;6276322;22;20010;-66
2022/01/05 06:29:21;;;;;;;6.43;3.25;;;;;;;;;;6274046;22;20008;-65
2022/01/05 06:31:47;;;;;;;6.45;2.78;;;;;;;;;;6272120;22;20003;-66
2022/01/05 06:34:14;;;;;;;5.95;3.10;;;;;;;;;;6273705;22;20004;-66
2022/01/05 06:36:40;;;;;;;7.50;4.22;;;;;;;;;;6270565;22;20003;-65
2022/01/05 06:39:06;;;;;;;6.03;3.60;;;;;;;;;;6273204;22;20003;-66
2022/01/05 06:41:33;;;;;;;8.65;3.05;;;;;;;;;;6275867;22;20004;-67
2022/01/05 06:43:59;;;;;;;6.85;3.20;;;;;;;;;;6273459;22;20018;-66
2022/01/05 06:46:25;;;;;;;5.47;3.17;;;;;;;;;;6272605;22;20003;-65
2022/01/05 06:48:51;;;;;;;6.53;2.75;;;;;;;;;;6272950;22;20004;-66
2022/01/05 06:51:17;;;;;;;10.07;2.83;;;;;;;;;;6273123;22;20454;-66
2022/01/05 06:53:44;;;;;;;12.50;3.70;;;;;;;;;;6273899;22;20014;-66
2022/01/05 06:56:10;;;;;;;7.32;2.85;;;;;;;;;;6271924;22;20008;-65
2022/01/05 06:58:36;;;;;;;8.25;3.58;;;;;;;;;;6271690;22;20304;-66
2022/01/05 07:01:02;;;;;;;6.07;3.25;;;;;;;;;;6272441;22;20003;-65
2022/01/05 07:03:28;;;;;;;4.47;2.42;;;;;;;;;;6273573;22;20031;-66
2022/01/05 07:05:54;;;;;;;7.10;3.55;;;;;;;;;;6272032;22;20330;-66
2022/01/05 07:08:20;;;;;;;5.65;2.80;;;;;;;;;;6274039;22;20372;-65
2022/01/05 07:10:46;;;;;;;4.97;2.70;;;;;;;;;;6272558;22;20077;-66
2022/01/05 07:13:12;;;;;;;8.10;2.67;;;;;;;;;;6273741;22;20075;-66
2022/01/05 07:15:38;;;;;;;7.30;3.08;;;;;;;;;;6276962;22;20079;-65
2022/01/05 07:18:04;;;;;;;8.88;3.20;;;;;;;;;;6272841;22;20012;-65
2022/01/05 07:20:30;;;;;;;4.85;3.03;;;;;;;;;;6272376;22;20003;-65
2022/01/05 07:22:56;;;;;;;5.07;3.05;;;;;;;;;;6272331;22;20008;-66
2022/01/05 07:25:23;;;;;;;5.30;2.90;;;;;;;;;;6271845;22;20065;-66
2022/01/05 07:27:50;;;;;;;4.10;2.78;;;;;;;;;;6278126;22;19999;-65
2022/01/05 07:30:16;;;;;;;6.22;2.83;;;;;;;;;;6273746;22;20074;-66
2022/01/05 07:32:42;;;;;;;4.55;2.85;;;;;;;;;;6272089;22;20078;-65
2022/01/05 07:35:08;;;;;;;6.45;2.55;;;;;;;;;;6273393;22;20057;-67
2022/01/05 07:37:34;;;;;;;4.88;2.80;;;;;;;;;;6272801;22;20094;-68
2022/01/05 07:40:01;;;;;;;11.93;3.63;;;;;;;;;;6273250;22;20014;-65
2022/01/05 07:42:30;;;;;;;6.95;2.92;;;;;;;;;;6272923;22;20010;-66
2022/01/05 07:44:57;;;;;;;6.25;2.47;;;;;;;;;;6278184;22;20007;-66
2022/01/05 07:47:23;;;;;;;6.63;2.90;;;;;;;;;;6275858;22;20030;-65
2022/01/05 07:49:49;;;;;;;6.22;3.10;;;;;;;;;;6279356;22;20003;-67
2022/01/05 07:52:15;;;;;;;7.47;3.08;;;;;;;;;;6273116;22;20006;-66
2022/01/05 07:54:41;;;;;;;6.60;2.75;;;;;;;;;;6270121;22;20015;-62
2022/01/05 07:57:07;;;;;;;8.40;2.75;;;;;;;;;;6270841;22;20000;-65
2022/01/05 07:59:33;;;;;;;6.13;3.33;;;;;;;;;;6270587;22;20580;-67
2022/01/05 08:01:59;;;;;;;9.07;3.40;;;;;;;;;;6276320;22;20075;-67
2022/01/05 08:04:25;;;;;;;6.10;3.75;;;;;;;;;;6270578;22;20011;-65
2022/01/05 08:06:52;;;;;;;8.05;3.00;;;;;;;;;;6271982;22;20038;-65
2022/01/05 08:09:18;;;;;;;6.85;2.70;;;;;;;;;;6271267;22;20003;-65
2022/01/05 08:11:44;;;;;;;6.30;2.53;;;;;;;;;;6272722;22;20330;-66
2022/01/05 08:14:10;;;;;;;13.93;3.58;;;;;;;;;;6272671;22;20034;-65
2022/01/05 08:16:36;;;;;;;8.05;2.97;;;;;;;;;;6271693;22;20004;-66
2022/01/05 08:19:02;;;;;;;8.52;2.85;;;;;;;;;;6270087;22;20003;-65
2022/01/05 08:21:28;;;;;;;8.00;3.00;;;;;;;;;;6269791;22;20074;-66
2022/01/05 08:23:54;;;;;;;7.57;2.97;;;;;;;;;;6269693;22;20011;-65
2022/01/05 08:26:20;;;;;;;6.70;3.17;;;;;;;;;;6267742;22;20812;-67
2022/01/05 08:28:46;;;;;;;6.88;3.03;;;;;;;;;;6266505;22;19996;-67
2022/01/05 08:31:12;;;;;;;9.45;3.05;;;;;;;;;;6267759;22;20389;-68
2022/01/05 08:33:39;;;;;;;6.30;3.05;;;;;;;;;;6269713;22;20003;-63
2022/01/05 08:36:05;;;;;;;10.98;4.78;;;;;;;;;;6268071;22;20003;-67
2022/01/05 08:38:32;;;;;;;6.88;3.15;;;;;;;;;;6264788;22;20011;-67
2022/01/05 08:40:58;;;;;;;8.35;3.80;;;;;;;;;;6264886;22;20004;-66
2022/01/05 08:43:24;;;;;;;6.05;3.10;;;;;;;;;;6268103;22;20008;-63
2022/01/05 08:45:50;;;;;;;8.65;2.97;;;;;;;;;;6269163;22;20095;-65
2022/01/05 08:48:17;;;;;;;6.00;3.22;;;;;;;;;;6265872;22;20003;-64
2022/01/05 08:50:43;;;;;;;7.30;3.50;;;;;;;;;;6265711;22;20010;-64
2022/01/05 08:53:17;;;;;;;10.05;3.40;;;;;;;;;;6267188;22;20018;-62
2022/01/05 08:55:46;;;;;;;7.45;2.95;;;;;;;;;;6267002;22;20007;-68
2022/01/05 08:58:14;;;;;;;8.75;2.90;;;;;;;;;;6268669;22;20446;-61
2022/01/05 09:00:40;;;;;;;5.82;2.70;;;;;;;;;;6266432;22;20007;-66
2022/01/05 09:03:06;;;;;;;7.65;3.83;;;;;;;;;;6267998;22;20030;-66
2022/01/05 09:05:33;;;;;;;6.68;2.70;;;;;;;;;;6269241;22;20452;-62
2022/01/05 09:07:59;;;;;;;12.57;3.47;;;;;;;;;;6267090;22;20004;-68
2022/01/05 09:10:25;;;;;;;7.05;2.80;;;;;;;;;;6266326;22;20081;-64
2022/01/05 09:12:53;;;;;;;9.10;3.60;;;;;;;;;;6267963;22;20011;-66
2022/01/05 09:15:19;;;;;;;6.35;2.65;;;;;;;;;;6268973;22;20003;-68
2022/01/05 09:17:46;;;;;;;7.15;2.92;;;;;;;;;;6267774;22;20043;-65
2022/01/05 09:20:12;;;;;;;3.75;2.67;;;;;;;;;;6268068;22;20004;-67
2022/01/05 09:22:38;;;;;;;4.93;2.67;;;;;;;;;;6267171;22;20098;-67
2022/01/05 09:25:06;;;;;;;4.38;2.67;;;;;;;;;;6270745;22;20082;-62
2022/01/05 09:27:32;;;;;;;7.97;3.60;;;;;;;;;;6270126;22;20035;-65
2022/01/05 09:29:58;;;;;;;7.25;3.00;;;;;;;;;;6270670;22;20027;-67
2022/01/05 09:32:24;;;;;;;8.57;3.25;;;;;;;;;;6268462;22;20000;-66
2022/01/05 09:34:50;;;;;;;4.72;3.10;;;;;;;;;;6269505;22;20011;-62
2022/01/05 09:37:23;;;;;;;7.75;3.25;;;;;;;;;;6268585;22;20012;-63
2022/01/05 09:42:34;;;;;;;8.93;4.07;;;;;;;;;;6269799;22;20018;-66
2022/01/05 09:45:00;;;;;;;9.50;3.25;;;;;;;;;;6272504;22;20000;-66
2022/01/05 09:47:35;;;;;;;8.95;3.00;;;;;;;;;;6270036;22;20011;-65
2022/01/05 09:50:04;;;;;;;7.35;3.83;;;;;;;;;;6270585;22;20011;-65
2022/01/05 09:52:34;;;;;;;6.40;3.55;;;;;;;;;;6269191;22;20354;-62
2022/01/05 09:55:00;;;;;;;4.40;3.13;;;;;;;;;;6271486;22;20031;-67
2022/01/05 09:57:26;;;;;;;4.60;3.50;;;;;;;;;;6269020;22;20008;-64
2022/01/05 09:59:52;;;;;;;6.80;3.08;;;;;;;;;;6270719;22;20015;-65
2022/01/05 10:02:20;;;;;;;14.68;5.15;;;;;;;;;;6268208;22;20593;-70
2022/01/05 10:04:46;;;;;;;20.08;10.98;;;;;;;;;;6271207;22;20000;-65
2022/01/05 10:07:13;;;;;;;20.65;8.48;;;;;;;;;;6272418;22;20010;-65
2022/01/05 10:09:39;;;;;;;20.80;10.20;;;;;;;;;;6270982;22;20004;-65
2022/01/05 10:12:06;;;;;;;9.70;5.38;;;;;;;;;;6264682;22;20083;-65
2022/01/05 10:14:32;;;;;;;16.02;7.18;;;;;;;;;;6268606;22;20007;-70
2022/01/05 10:17:03;;;;;;;10.80;4.25;;;;;;;;;;6268556;22;20003;-67
2022/01/05 10:19:29;;;;;;;7.68;3.65;;;;;;;;;;6264083;22;20008;-67
2022/01/05 10:21:57;;;;;;;9.85;5.22;;;;;;;;;;6267105;22;19996;-66
2022/01/05 10:24:41;;;;;;;7.45;3.67;;;;;;;;;;6266004;22;20063;-67
2022/01/05 10:27:07;;;;;;;11.32;4.95;;;;;;;;;;6266972;22;20091;-65
2022/01/05 10:29:33;;;;;;;10.00;5.10;;;;;;;;;;6267332;22;20050;-65
2022/01/05 10:32:01;;;;;;;9.15;3.45;;;;;;;;;;6266597;22;20007;-66
2022/01/05 10:34:32;;;;;;;5.65;3.45;;;;;;;;;;6268156;22;20008;-69
2022/01/05 10:37:05;;;;;;;10.02;4.00;;;;;;;;;;6267147;22;20110;-66
2022/01/05 10:39:32;;;;;;;10.02;3.55;;;;;;;;;;6267152;22;20015;-62
2022/01/05 10:42:08;;;;;;;12.60;3.90;;;;;;;;;;6268774;22;20042;-67
2022/01/05 10:44:34;;;;;;;;;;;;;;;;;;6267056;22;20008;-64
2022/01/05 10:47:01;;;;;;;8.95;4.18;;;;;;;;;;6268880;22;19941;-65
2022/01/05 10:49:34;;;;;;;9.77;4.00;;;;;;;;;;6268727;22;20007;-68
2022/01/05 10:52:20;;;;;;;9.73;4.45;;;;;;;;;;6267059;22;20006;-66
2022/01/05 10:54:47;;;;;;;8.23;3.95;;;;;;;;;;6267638;22;20009;-64
2022/01/05 10:57:13;;;;;;;6.38;4.13;;;;;;;;;;6266163;22;20039;-65
2022/01/05 10:59:44;;;;;;;6.50;3.60;;;;;;;;;;6267771;22;20011;-67
2022/01/05 11:02:23;;;;;;;7.07;3.33;;;;;;;;;;6269006;22;20015;-67
2022/01/05 11:04:50;;;;;;;7.25;2.33;;;;;;;;;;6273181;22;20004;-66
2022/01/05 11:07:21;;;;;;;12.40;3.20;;;;;;;;;;6270915;22;20048;-65
2022/01/05 11:10:01;;;;;;;9.82;3.45;;;;;;;;;;6268656;22;20000;-67
2022/01/05 11:12:36;;;;;;;5.85;3.75;;;;;;;;;;6266672;22;20035;-67
2022/01/05 11:15:19;;;;;;;6.70;3.70;;;;;;;;;;6267720;22;20042;-64
2022/01/05 11:18:03;;;;;;;9.65;3.45;;;;;;;;;;6266862;22;20004;-66
2022/01/05 11:20:29;;;;;;;7.90;3.33;;;;;;;;;;6266391;22;20790;-63
2022/01/05 11:22:55;;;;;;;5.45;3.20;;;;;;;;;;6267777;22;20012;-65
2022/01/05 11:25:22;;;;;;;7.72;3.50;;;;;;;;;;6267659;22;20606;-64
2022/01/05 11:27:49;;;;;;;8.65;3.13;;;;;;;;;;6267118;22;20434;-64
2022/01/05 11:30:15;;;;;;;6.07;3.00;;;;;;;;;;6267746;22;20007;-64
2022/01/05 11:32:41;;;;;;;5.32;3.08;;;;;;;;;;6265670;22;20050;-68
2022/01/05 11:35:07;;;;;;;6.63;3.10;;;;;;;;;;6269154;22;20016;-64
2022/01/05 11:37:34;;;;;;;7.70;3.20;;;;;;;;;;6265781;22;20007;-66
2022/01/05 11:40:02;;;;;;;7.15;3.00;;;;;;;;;;6268045;22;20086;-69
2022/01/05 11:42:36;;;;;;;6.47;3.40;;;;;;;;;;6269364;22;20004;-67
2022/01/05 11:45:04;;;;;;;9.02;3.10;;;;;;;;;;6270342;22;20004;-69
2022/01/05 11:47:35;;;;;;;7.45;3.55;;;;;;;;;;6274151;22;20060;-65
2022/01/05 11:50:13;;;;;;;14.75;7.78;;;;;;;;;;6272660;22;20551;-67
2022/01/05 11:52:59;;;;;;;15.13;7.70;;;;;;;;;;6268177;22;20011;-68
2022/01/05 11:55:26;;;;;;;9.15;5.18;;;;;;;;;;6269008;22;20004;-65
2022/01/05 11:58:10;;;;;;;13.27;5.78;;;;;;;;;;6269571;22;20015;-67
2022/01/05 12:00:36;;;;;;;20.60;10.55;;;;;;;;;;6266314;22;20008;-66
2022/01/05 12:03:03;;;;;;;13.82;8.25;;;;;;;;;;6262968;22;20012;-67
2022/01/05 12:05:50;;;;;;;8.48;4.88;;;;;;;;;;6264703;22;20031;-67
2022/01/05 12:08:49;;;;;;;12.75;3.85;;;;;;;;;;6264996;22;20003;-69
2022/01/05 12:11:35;;;;;;;5.85;4.78;;;;;;;;;;6215276;22;20011;-69
2022/01/05 12:14:03;;;;;;;12.02;7.00;;;;;;;;;;6266589;22;20035;-65
2022/01/05 12:16:29;;;;;;;9.25;6.03;;;;;;;;;;6266131;22;20342;-68
2022/01/05 12:19:05;;;;;;;11.02;5.28;;;;;;;;;;6272981;22;20004;-68
2022/01/05 12:21:42;;;;;;;8.63;4.03;;;;;;;;;;6271180;22;20144;-65
2022/01/05 12:24:08;;;;;;;7.47;5.03;;;;;;;;;;6272074;22;20039;-66
2022/01/05 12:26:35;;;;;;;11.95;4.18;;;;;;;;;;6271784;22;20006;-69
2022/01/05 12:29:02;;;;;;;8.15;3.65;;;;;;;;;;6270903;22;20743;-66
2022/01/05 12:32:04;;;;;;;6.47;3.80;;;;;;;;;;6269079;22;20004;-67
2022/01/05 12:34:48;;;;;;;9.25;5.25;;;;;;;;;;6174724;23;20032;-66
2022/01/05 12:37:33;;;;;;;14.65;5.07;;;;;;;;;;6254265;22;20014;-68
2022/01/05 12:39:59;;;;;;;12.45;4.82;;;;;;;;;;6266408;22;20817;-69
2022/01/05 12:42:25;;;;;;;12.77;4.82;;;;;;;;;;6266226;22;20027;-67
2022/01/05 12:44:51;;;;;;;6.28;3.33;;;;;;;;;;6267478;22;20031;-67
2022/01/05 12:47:34;;;;;;;7.85;3.28;;;;;;;;;;6268275;22;19999;-65
2022/01/05 12:50:16;;;;;;;8.23;3.47;;;;;;;;;;6266699;22;20042;-68
2022/01/05 12:52:43;;;;;;;6.55;3.40;;;;;;;;;;6268136;22;20050;-63
2022/01/05 12:55:09;;;;;;;6.05;3.13;;;;;;;;;;6270754;22;20003;-67
2022/01/05 12:57:36;;;;;;;4.35;2.60;;;;;;;;;;6265053;22;20007;-66
2022/01/05 13:00:04;;;;;;;8.73;3.20;;;;;;;;;;6266795;22;20490;-66
2022/01/05 13:02:31;;;;;;;7.15;3.22;;;;;;;;;;6265903;22;20008;-68
2022/01/05 13:05:00;;;;;;;9.50;3.38;;;;;;;;;;6267597;22;20003;-68
2022/01/05 13:07:26;;;;;;;6.82;3.53;;;;;;;;;;6266910;22;20327;-65
2022/01/05 13:09:54;;;;;;;4.82;3.15;;;;;;;;;;6268112;22;20334;-69
2022/01/05 13:12:24;;;;;;;10.27;3.50;;;;;;;;;;6266759;22;20431;-74
2022/01/05 13:14:55;;;;;;;11.60;3.60;;;;;;;;;;6267331;22;20345;-67
2022/01/05 13:17:23;;;;;;;6.43;3.30;;;;;;;;;;6267028;22;20041;-67
2022/01/05 13:19:55;;;;;;;10.85;3.42;;;;;;;;;;6266939;22;20503;-65
2022/01/05 13:22:34;;;;;;;7.68;3.55;;;;;;;;;;6267737;22;20343;-69
2022/01/05 13:25:08;;;;;;;6.53;3.35;;;;;;;;;;6269381;22;20015;-68
2022/01/05 13:27:37;;;;;;;9.55;5.57;;;;;;;;;;6267921;22;20020;-67
2022/01/05 13:30:10;;;;;;;7.15;4.18;;;;;;;;;;6265300;22;20015;-68
2022/01/05 13:32:38;;;;;;;6.75;4.75;;;;;;;;;;6265657;22;20004;-63
2022/01/05 13:35:12;;;;;;;12.13;5.03;;;;;;;;;;6268421;22;20454;-63
2022/01/05 13:37:39;;;;;;;9.90;4.30;;;;;;;;;;6264265;22;20004;-67
2022/01/05 13:40:19;;;;;;;8.18;3.58;;;;;;;;;;6265842;22;20303;-68
2022/01/05 13:43:01;;;;;;;7.03;3.70;;;;;;;;;;6266959;22;20012;-67
2022/01/05 13:45:33;;;;;;;9.80;4.05;;;;;;;;;;6266800;22;20061;-68
2022/01/05 13:48:04;;;;;;;11.98;5.15;;;;;;;;;;6265622;22;20000;-66
2022/01/05 13:50:33;;;;;;;7.88;3.65;;;;;;;;;;6265736;22;20008;-67
2022/01/05 13:53:19;;;;;;;6.57;4.00;;;;;;;;;;6264502;22;20000;-69
2022/01/05 13:55:45;;;;;;;;;;;;;;;;;;6265871;22;20000;-67
2022/01/05 13:58:17;;;;;;;7.45;4.97;;;;;;;;;;6266176;22;20210;-67
2022/01/05 14:00:44;;;;;;;8.48;3.92;;;;;;;;;;6265322;22;20050;-65
2022/01/05 14:03:24;;;;;;;7.05;3.92;;;;;;;;;;6264838;22;20007;-67
2022/01/05 14:05:50;;;;;;;8.07;4.15;;;;;;;;;;6263109;22;20381;-66
2022/01/05 14:08:16;;;;;;;7.03;3.88;;;;;;;;;;6266158;22;20134;-67
2022/01/05 14:10:42;;;;;;;10.07;6.05;;;;;;;;;;6265104;22;20008;-65
2022/01/05 14:13:10;;;;;;;9.10;4.70;;;;;;;;;;6264397;22;20018;-65
2022/01/05 14:15:36;;;;;;;11.73;4.60;;;;;;;;;;6265817;22;20509;-65
2022/01/05 14:18:02;;;;;;;9.40;4.35;;;;;;;;;;6267787;22;20012;-64
2022/01/05 14:20:29;;;;;;;6.88;4.05;;;;;;;;;;6266206;22;20038;-66
2022/01/05 14:23:01;;;;;;;8.48;4.40;;;;;;;;;;6268370;22;20484;-67
2022/01/05 14:25:49;;;;;;;7.45;4.03;;;;;;;;;;6266510;22;20455;-67
2022/01/05 14:28:15;;;;;;;7.78;3.88;;;;;;;;;;6267807;22;20000;-66
2022/01/05 14:30:48;;;;;;;6.45;4.43;;;;;;;;;;6266623;22;20000;-67
2022/01/05 14:33:24;;;;;;;8.27;4.03;;;;;;;;;;6267215;22;20013;-65
2022/01/05 14:35:50;;;;;;;7.80;3.80;;;;;;;;;;6267888;22;20038;-67
2022/01/05 14:38:17;;;;;;;7.72;3.63;;;;;;;;;;6267538;22;20012;-65
2022/01/05 14:40:43;;;;;;;7.63;3.17;;;;;;;;;;6267109;22;20003;-66
2022/01/05 14:43:12;;;;;;;5.93;3.10;;;;;;;;;;6268241;22;20456;-65
2022/01/05 14:45:39;;;;;;;7.32;3.28;;;;;;;;;;6266633;22;20004;-66